< Typhoon 201910 2019 Season Typhoon 201912 >
Typhoon 201911 (BAILU)
General InformationTrack Information on Google MapsDetailed Wind InformationForecast History on Google MapsAccess Analytics MapList of All Images || NewsDisaster Info.WeblogTrackbackTyphoon FrontTwiphoonTyphoon Now!Typhoon ImaginationJMA Disaster Info. XMLResourceGoogle EarthGE AnimationAtom FeedGeoJSON
Detalied Best Track (Time Zone = UTC)
Year Month Day Hour Lat. Long. Pressure (hPa) Wind (kt) Class Image Chart
2019 8 19 12 13.0 134.0 1006 0 2 Image Chart
2019 8 19 18 13.1 133.9 1004 0 2 Image Chart
2019 8 20 00 13.4 133.8 1004 0 2 Image Chart
2019 8 20 06 13.7 133.5 1002 0 2 Image Chart
2019 8 20 12 14.1 133.2 1002 0 2 Image Chart
2019 8 20 18 14.3 132.8 1000 0 2 Image Chart
2019 8 21 00 14.5 132.3 1000 0 2 Image Chart
2019 8 21 06 14.6 131.3 998 35 3 Image Chart
2019 8 21 12 14.8 130.4 998 35 3 Image Chart
2019 8 21 18 15.2 129.8 996 35 3 Image Chart
2019 8 22 00 15.4 129.1 994 40 3 Image Chart
2019 8 22 06 15.7 128.5 994 40 3 Image Chart
2019 8 22 12 16.3 127.8 990 45 3 Image Chart
2019 8 22 18 17.2 127.3 985 50 4 Image Chart
2019 8 23 00 18.3 126.4 985 50 4 Image Chart
2019 8 23 06 19.1 125.4 985 50 4 Image Chart
2019 8 23 12 19.9 124.5 985 50 4 Image Chart
2019 8 23 18 20.7 123.0 985 50 4 Image Chart
2019 8 24 00 21.5 121.8 985 50 4 Image Chart
2019 8 24 06 22.4 120.7 985 50 4 Image Chart
2019 8 24 12 22.4 119.3 990 50 4 Image Chart
2019 8 24 18 22.7 118.0 994 40 3 Image Chart
2019 8 25 00 24.1 117.1 994 40 3 Image Chart
2019 8 25 06 24.6 115.7 994 40 3 Image Chart
2019 8 25 12 24.7 114.2 996 35 3 Image Chart
2019 8 25 18 24.8 113.0 998 0 2 Image Chart
2019 8 26 00 25.3 112.1 1000 0 2 Image Chart
2019 8 26 06 25.7 111.1 1000 0 2 Image Chart
Japan Meteorological Agency Best Track Data | Correction Date : 2019-10-04
< Typhoon 201910 2019 Season Typhoon 201912 >

Help